sensor_id;sensor_type;location;lat;lon;timestamp;P1;durP1;ratioP1;P2;durP2;ratioP2
13834;SDS011;6988;52.614;13.500;2023-04-03T00:06:46;5.53;;;1.80;;
13834;SDS011;6988;52.614;13.500;2023-04-03T00:11:38;5.33;;;2.00;;
13834;SDS011;6988;52.614;13.500;2023-04-03T00:16:29;5.87;;;1.70;;
13834;SDS011;6988;52.614;13.500;2023-04-03T00:21:21;6.83;;;1.80;;
13834;SDS011;6988;52.614;13.500;2023-04-03T00:26:14;5.50;;;1.97;;
13834;SDS011;6988;52.614;13.500;2023-04-03T00:31:06;3.70;;;1.70;;
13834;SDS011;6988;52.614;13.500;2023-04-03T00:35:59;5.23;;;1.87;;
13834;SDS011;6988;52.614;13.500;2023-04-03T00:40:56;3.53;;;1.70;;
13834;SDS011;6988;52.614;13.500;2023-04-03T00:45:50;7.80;;;2.10;;
13834;SDS011;6988;52.614;13.500;2023-04-03T00:50:43;5.27;;;2.10;;
13834;SDS011;6988;52.614;13.500;2023-04-03T00:55:38;6.63;;;2.00;;
13834;SDS011;6988;52.614;13.500;2023-04-03T01:00:30;7.87;;;2.07;;
13834;SDS011;6988;52.614;13.500;2023-04-03T01:05:24;5.37;;;1.90;;
13834;SDS011;6988;52.614;13.500;2023-04-03T01:10:16;5.40;;;1.70;;
13834;SDS011;6988;52.614;13.500;2023-04-03T01:15:12;5.77;;;2.00;;
13834;SDS011;6988;52.614;13.500;2023-04-03T01:25:58;9.40;;;2.20;;
13834;SDS011;6988;52.614;13.500;2023-04-03T01:30:51;6.20;;;2.20;;
13834;SDS011;6988;52.614;13.500;2023-04-03T01:35:57;8.87;;;1.87;;
13834;SDS011;6988;52.614;13.500;2023-04-03T01:40:49;7.00;;;2.00;;
13834;SDS011;6988;52.614;13.500;2023-04-03T01:45:41;6.03;;;1.90;;
13834;SDS011;6988;52.614;13.500;2023-04-03T01:50:33;7.33;;;2.27;;
13834;SDS011;6988;52.614;13.500;2023-04-03T01:55:27;7.57;;;2.10;;
13834;SDS011;6988;52.614;13.500;2023-04-03T02:00:19;4.77;;;1.77;;
13834;SDS011;6988;52.614;13.500;2023-04-03T02:05:11;7.63;;;1.83;;
13834;SDS011;6988;52.614;13.500;2023-04-03T02:10:03;7.87;;;2.13;;
13834;SDS011;6988;52.614;13.500;2023-04-03T02:14:58;3.33;;;1.60;;
13834;SDS011;6988;52.614;13.500;2023-04-03T02:19:50;6.27;;;1.70;;
13834;SDS011;6988;52.614;13.500;2023-04-03T02:24:42;7.30;;;2.10;;
13834;SDS011;6988;52.614;13.500;2023-04-03T02:29:34;4.73;;;1.60;;
13834;SDS011;6988;52.614;13.500;2023-04-03T02:34:27;6.47;;;2.17;;
13834;SDS011;6988;52.614;13.500;2023-04-03T02:39:22;6.10;;;2.00;;
13834;SDS011;6988;52.614;13.500;2023-04-03T02:44:15;3.33;;;1.50;;
13834;SDS011;6988;52.614;13.500;2023-04-03T02:49:08;5.27;;;1.97;;
13834;SDS011;6988;52.614;13.500;2023-04-03T02:54:01;7.97;;;1.70;;
13834;SDS011;6988;52.614;13.500;2023-04-03T02:58:57;4.03;;;1.77;;
13834;SDS011;6988;52.614;13.500;2023-04-03T03:03:50;5.20;;;1.87;;
13834;SDS011;6988;52.614;13.500;2023-04-03T03:08:42;6.87;;;2.03;;
13834;SDS011;6988;52.614;13.500;2023-04-03T03:13:36;6.73;;;1.73;;
13834;SDS011;6988;52.614;13.500;2023-04-03T03:18:28;5.43;;;1.67;;
13834;SDS011;6988;52.614;13.500;2023-04-03T03:23:20;8.87;;;1.90;;
13834;SDS011;6988;52.614;13.500;2023-04-03T03:28:14;7.07;;;1.97;;
13834;SDS011;6988;52.614;13.500;2023-04-03T03:33:07;5.20;;;2.00;;
13834;SDS011;6988;52.614;13.500;2023-04-03T03:37:59;6.07;;;1.87;;
13834;SDS011;6988;52.614;13.500;2023-04-03T03:42:51;5.17;;;1.90;;
13834;SDS011;6988;52.614;13.500;2023-04-03T03:47:44;5.03;;;1.93;;
13834;SDS011;6988;52.614;13.500;2023-04-03T03:52:37;5.10;;;2.00;;
13834;SDS011;6988;52.614;13.500;2023-04-03T03:57:29;7.50;;;2.40;;
13834;SDS011;6988;52.614;13.500;2023-04-03T04:02:22;5.83;;;2.17;;
13834;SDS011;6988;52.614;13.500;2023-04-03T04:07:14;4.77;;;1.90;;
13834;SDS011;6988;52.614;13.500;2023-04-03T04:12:08;5.10;;;1.97;;
13834;SDS011;6988;52.614;13.500;2023-04-03T04:17:00;6.43;;;2.00;;
13834;SDS011;6988;52.614;13.500;2023-04-03T04:21:52;4.33;;;1.77;;
13834;SDS011;6988;52.614;13.500;2023-04-03T04:26:45;9.20;;;2.00;;
13834;SDS011;6988;52.614;13.500;2023-04-03T04:31:40;4.93;;;1.97;;
13834;SDS011;6988;52.614;13.500;2023-04-03T04:36:32;5.93;;;2.07;;
13834;SDS011;6988;52.614;13.500;2023-04-03T04:41:24;6.90;;;2.07;;
13834;SDS011;6988;52.614;13.500;2023-04-03T04:46:17;6.53;;;1.90;;
13834;SDS011;6988;52.614;13.500;2023-04-03T04:51:16;7.37;;;2.10;;
13834;SDS011;6988;52.614;13.500;2023-04-03T04:56:08;5.37;;;1.80;;
13834;SDS011;6988;52.614;13.500;2023-04-03T05:01:02;4.23;;;1.43;;
13834;SDS011;6988;52.614;13.500;2023-04-03T05:05:59;5.53;;;1.60;;
13834;SDS011;6988;52.614;13.500;2023-04-03T05:10:55;4.73;;;1.53;;
13834;SDS011;6988;52.614;13.500;2023-04-03T05:15:49;5.17;;;1.80;;
13834;SDS011;6988;52.614;13.500;2023-04-03T05:20:42;5.60;;;1.70;;
13834;SDS011;6988;52.614;13.500;2023-04-03T05:25:34;5.63;;;1.50;;
13834;SDS011;6988;52.614;13.500;2023-04-03T05:30:31;5.43;;;1.57;;
13834;SDS011;6988;52.614;13.500;2023-04-03T05:35:23;7.47;;;1.70;;
13834;SDS011;6988;52.614;13.500;2023-04-03T05:40:19;5.10;;;1.80;;
13834;SDS011;6988;52.614;13.500;2023-04-03T05:45:15;5.77;;;1.97;;
13834;SDS011;6988;52.614;13.500;2023-04-03T05:50:09;7.57;;;2.10;;
13834;SDS011;6988;52.614;13.500;2023-04-03T05:55:01;5.67;;;1.70;;
13834;SDS011;6988;52.614;13.500;2023-04-03T05:59:57;6.60;;;1.57;;
13834;SDS011;6988;52.614;13.500;2023-04-03T06:04:50;6.03;;;1.60;;
13834;SDS011;6988;52.614;13.500;2023-04-03T06:09:44;8.87;;;1.73;;
13834;SDS011;6988;52.614;13.500;2023-04-03T06:14:36;3.57;;;1.40;;
13834;SDS011;6988;52.614;13.500;2023-04-03T06:19:28;5.47;;;1.80;;
13834;SDS011;6988;52.614;13.500;2023-04-03T06:24:21;8.50;;;1.60;;
13834;SDS011;6988;52.614;13.500;2023-04-03T06:29:15;5.63;;;1.90;;
13834;SDS011;6988;52.614;13.500;2023-04-03T06:34:07;4.67;;;1.50;;
13834;SDS011;6988;52.614;13.500;2023-04-03T06:38:59;6.37;;;1.50;;
13834;SDS011;6988;52.614;13.500;2023-04-03T06:43:51;4.67;;;1.37;;
13834;SDS011;6988;52.614;13.500;2023-04-03T06:48:44;5.10;;;1.33;;
13834;SDS011;6988;52.614;13.500;2023-04-03T06:53:36;5.70;;;1.50;;
13834;SDS011;6988;52.614;13.500;2023-04-03T06:58:28;4.30;;;1.30;;
13834;SDS011;6988;52.614;13.500;2023-04-03T07:03:20;3.90;;;1.30;;
13834;SDS011;6988;52.614;13.500;2023-04-03T07:08:13;3.13;;;1.27;;
13834;SDS011;6988;52.614;13.500;2023-04-03T07:13:05;3.63;;;1.10;;
13834;SDS011;6988;52.614;13.500;2023-04-03T07:17:57;4.00;;;1.40;;
13834;SDS011;6988;52.614;13.500;2023-04-03T07:22:48;3.67;;;1.20;;
13834;SDS011;6988;52.614;13.500;2023-04-03T07:27:41;7.27;;;1.57;;
13834;SDS011;6988;52.614;13.500;2023-04-03T07:32:33;4.27;;;1.57;;
13834;SDS011;6988;52.614;13.500;2023-04-03T07:37:26;4.50;;;1.03;;
13834;SDS011;6988;52.614;13.500;2023-04-03T07:42:18;2.87;;;1.00;;
13834;SDS011;6988;52.614;13.500;2023-04-03T07:47:11;3.77;;;0.90;;
13834;SDS011;6988;52.614;13.500;2023-04-03T07:52:06;4.33;;;1.50;;
13834;SDS011;6988;52.614;13.500;2023-04-03T07:56:59;4.50;;;1.20;;
13834;SDS011;6988;52.614;13.500;2023-04-03T08:01:51;3.80;;;1.10;;
13834;SDS011;6988;52.614;13.500;2023-04-03T08:06:47;3.60;;;1.00;;
13834;SDS011;6988;52.614;13.500;2023-04-03T08:11:39;4.47;;;1.27;;
13834;SDS011;6988;52.614;13.500;2023-04-03T08:16:31;6.07;;;1.20;;
13834;SDS011;6988;52.614;13.500;2023-04-03T08:21:23;2.17;;;1.20;;
13834;SDS011;6988;52.614;13.500;2023-04-03T08:26:18;3.93;;;1.00;;
13834;SDS011;6988;52.614;13.500;2023-04-03T08:31:14;4.00;;;1.10;;
13834;SDS011;6988;52.614;13.500;2023-04-03T08:36:16;4.63;;;1.03;;
13834;SDS011;6988;52.614;13.500;2023-04-03T08:41:13;4.27;;;1.00;;
13834;SDS011;6988;52.614;13.500;2023-04-03T08:46:13;2.27;;;0.93;;
13834;SDS011;6988;52.614;13.500;2023-04-03T08:51:14;2.43;;;1.00;;
13834;SDS011;6988;52.614;13.500;2023-04-03T08:56:10;3.07;;;1.10;;
13834;SDS011;6988;52.614;13.500;2023-04-03T09:01:14;3.63;;;1.00;;
13834;SDS011;6988;52.614;13.500;2023-04-03T09:06:12;3.13;;;0.90;;
13834;SDS011;6988;52.614;13.500;2023-04-03T09:11:09;3.90;;;1.10;;
13834;SDS011;6988;52.614;13.500;2023-04-03T09:16:16;4.07;;;1.40;;
13834;SDS011;6988;52.614;13.500;2023-04-03T09:21:25;4.13;;;1.10;;
13834;SDS011;6988;52.614;13.500;2023-04-03T09:26:26;3.00;;;1.13;;
13834;SDS011;6988;52.614;13.500;2023-04-03T09:31:26;3.50;;;1.10;;
13834;SDS011;6988;52.614;13.500;2023-04-03T09:36:39;2.47;;;0.90;;
13834;SDS011;6988;52.614;13.500;2023-04-03T09:41:33;3.70;;;1.40;;
13834;SDS011;6988;52.614;13.500;2023-04-03T09:46:29;2.73;;;1.20;;
13834;SDS011;6988;52.614;13.500;2023-04-03T09:51:24;3.90;;;1.17;;
13834;SDS011;6988;52.614;13.500;2023-04-03T09:56:19;2.33;;;0.80;;
13834;SDS011;6988;52.614;13.500;2023-04-03T10:01:23;1.60;;;0.80;;
13834;SDS011;6988;52.614;13.500;2023-04-03T10:06:22;1.50;;;0.80;;
13834;SDS011;6988;52.614;13.500;2023-04-03T10:11:15;2.43;;;0.90;;
13834;SDS011;6988;52.614;13.500;2023-04-03T10:16:11;3.97;;;1.20;;
13834;SDS011;6988;52.614;13.500;2023-04-03T10:21:10;2.73;;;0.87;;
13834;SDS011;6988;52.614;13.500;2023-04-03T10:26:13;2.07;;;0.87;;
13834;SDS011;6988;52.614;13.500;2023-04-03T10:31:21;3.47;;;0.80;;
13834;SDS011;6988;52.614;13.500;2023-04-03T10:36:25;2.90;;;1.00;;
13834;SDS011;6988;52.614;13.500;2023-04-03T10:41:32;2.13;;;0.70;;
13834;SDS011;6988;52.614;13.500;2023-04-03T10:46:40;2.00;;;0.80;;
13834;SDS011;6988;52.614;13.500;2023-04-03T10:51:41;3.57;;;0.90;;
13834;SDS011;6988;52.614;13.500;2023-04-03T10:56:40;3.40;;;0.70;;
13834;SDS011;6988;52.614;13.500;2023-04-03T11:01:38;2.10;;;0.87;;
13834;SDS011;6988;52.614;13.500;2023-04-03T11:06:36;2.53;;;0.80;;
13834;SDS011;6988;52.614;13.500;2023-04-03T11:11:36;3.13;;;0.97;;
13834;SDS011;6988;52.614;13.500;2023-04-03T11:16:34;2.17;;;0.80;;
13834;SDS011;6988;52.614;13.500;2023-04-03T11:21:33;3.53;;;1.10;;
13834;SDS011;6988;52.614;13.500;2023-04-03T11:26:31;2.20;;;0.83;;
13834;SDS011;6988;52.614;13.500;2023-04-03T11:31:36;4.60;;;1.07;;
13834;SDS011;6988;52.614;13.500;2023-04-03T11:36:48;4.53;;;1.00;;
13834;SDS011;6988;52.614;13.500;2023-04-03T11:41:46;2.30;;;0.80;;
13834;SDS011;6988;52.614;13.500;2023-04-03T11:46:50;3.63;;;1.23;;
13834;SDS011;6988;52.614;13.500;2023-04-03T11:51:45;2.30;;;0.83;;
13834;SDS011;6988;52.614;13.500;2023-04-03T11:56:36;5.33;;;1.20;;
13834;SDS011;6988;52.614;13.500;2023-04-03T12:01:44;3.53;;;1.00;;
13834;SDS011;6988;52.614;13.500;2023-04-03T12:06:48;2.40;;;1.00;;
13834;SDS011;6988;52.614;13.500;2023-04-03T12:11:49;4.43;;;0.87;;
13834;SDS011;6988;52.614;13.500;2023-04-03T12:16:42;3.07;;;1.10;;
13834;SDS011;6988;52.614;13.500;2023-04-03T12:27:04;2.57;;;0.90;;
13834;SDS011;6988;52.614;13.500;2023-04-03T12:32:11;3.57;;;0.80;;
13834;SDS011;6988;52.614;13.500;2023-04-03T12:37:22;2.77;;;0.70;;
13834;SDS011;6988;52.614;13.500;2023-04-03T12:42:38;2.63;;;0.70;;
13834;SDS011;6988;52.614;13.500;2023-04-03T12:47:48;1.67;;;0.70;;
13834;SDS011;6988;52.614;13.500;2023-04-03T12:52:45;1.30;;;0.80;;
13834;SDS011;6988;52.614;13.500;2023-04-03T12:57:45;3.50;;;0.87;;
13834;SDS011;6988;52.614;13.500;2023-04-03T13:02:37;2.40;;;0.90;;
13834;SDS011;6988;52.614;13.500;2023-04-03T13:07:29;3.60;;;0.80;;
13834;SDS011;6988;52.614;13.500;2023-04-03T13:12:28;2.00;;;0.87;;
13834;SDS011;6988;52.614;13.500;2023-04-03T13:17:21;3.43;;;1.43;;
13834;SDS011;6988;52.614;13.500;2023-04-03T13:22:18;1.97;;;0.90;;
13834;SDS011;6988;52.614;13.500;2023-04-03T13:27:19;1.80;;;0.87;;
13834;SDS011;6988;52.614;13.500;2023-04-03T13:32:15;2.03;;;0.80;;
13834;SDS011;6988;52.614;13.500;2023-04-03T13:37:18;3.93;;;1.00;;
13834;SDS011;6988;52.614;13.500;2023-04-03T13:42:16;3.87;;;1.10;;
13834;SDS011;6988;52.614;13.500;2023-04-03T13:47:17;3.40;;;0.93;;
13834;SDS011;6988;52.614;13.500;2023-04-03T13:52:24;2.63;;;0.90;;
13834;SDS011;6988;52.614;13.500;2023-04-03T13:57:19;3.20;;;1.10;;
13834;SDS011;6988;52.614;13.500;2023-04-03T14:02:28;2.73;;;1.00;;
13834;SDS011;6988;52.614;13.500;2023-04-03T14:07:24;5.27;;;1.07;;
13834;SDS011;6988;52.614;13.500;2023-04-03T14:12:18;6.67;;;1.33;;
13834;SDS011;6988;52.614;13.500;2023-04-03T14:17:19;2.80;;;1.10;;
13834;SDS011;6988;52.614;13.500;2023-04-03T14:22:15;4.93;;;1.10;;
13834;SDS011;6988;52.614;13.500;2023-04-03T14:27:14;4.50;;;0.80;;
13834;SDS011;6988;52.614;13.500;2023-04-03T14:32:10;2.17;;;0.90;;
13834;SDS011;6988;52.614;13.500;2023-04-03T14:37:05;4.67;;;0.90;;
13834;SDS011;6988;52.614;13.500;2023-04-03T14:42:03;4.70;;;1.23;;
13834;SDS011;6988;52.614;13.500;2023-04-03T14:46:55;3.10;;;1.27;;
13834;SDS011;6988;52.614;13.500;2023-04-03T14:51:47;4.50;;;0.90;;
13834;SDS011;6988;52.614;13.500;2023-04-03T14:56:40;2.33;;;0.80;;
13834;SDS011;6988;52.614;13.500;2023-04-03T15:01:34;1.93;;;0.80;;
13834;SDS011;6988;52.614;13.500;2023-04-03T15:06:26;3.57;;;1.20;;
13834;SDS011;6988;52.614;13.500;2023-04-03T15:11:17;3.40;;;1.23;;
13834;SDS011;6988;52.614;13.500;2023-04-03T15:16:14;3.87;;;0.80;;
13834;SDS011;6988;52.614;13.500;2023-04-03T15:21:09;3.87;;;0.97;;
13834;SDS011;6988;52.614;13.500;2023-04-03T15:26:01;2.97;;;0.90;;
13834;SDS011;6988;52.614;13.500;2023-04-03T15:30:54;3.90;;;0.73;;
13834;SDS011;6988;52.614;13.500;2023-04-03T15:35:47;3.07;;;1.10;;
13834;SDS011;6988;52.614;13.500;2023-04-03T15:40:39;2.20;;;0.97;;
13834;SDS011;6988;52.614;13.500;2023-04-03T15:45:33;2.97;;;1.03;;
13834;SDS011;6988;52.614;13.500;2023-04-03T15:50:27;2.73;;;0.93;;
13834;SDS011;6988;52.614;13.500;2023-04-03T15:55:21;2.47;;;1.20;;
13834;SDS011;6988;52.614;13.500;2023-04-03T16:00:13;2.87;;;0.90;;
13834;SDS011;6988;52.614;13.500;2023-04-03T16:05:06;1.93;;;0.93;;
13834;SDS011;6988;52.614;13.500;2023-04-03T16:10:00;2.33;;;0.80;;
13834;SDS011;6988;52.614;13.500;2023-04-03T16:14:53;2.07;;;0.80;;
13834;SDS011;6988;52.614;13.500;2023-04-03T16:19:45;2.57;;;1.10;;
13834;SDS011;6988;52.614;13.500;2023-04-03T16:24:37;4.13;;;1.20;;
13834;SDS011;6988;52.614;13.500;2023-04-03T16:29:29;2.70;;;1.10;;
13834;SDS011;6988;52.614;13.500;2023-04-03T16:34:22;3.37;;;1.00;;
13834;SDS011;6988;52.614;13.500;2023-04-03T16:39:15;6.03;;;1.40;;
13834;SDS011;6988;52.614;13.500;2023-04-03T16:44:07;4.23;;;1.10;;
13834;SDS011;6988;52.614;13.500;2023-04-03T16:48:59;5.23;;;2.50;;
13834;SDS011;6988;52.614;13.500;2023-04-03T16:53:52;5.33;;;1.53;;
13834;SDS011;6988;52.614;13.500;2023-04-03T16:58:43;3.47;;;1.20;;
13834;SDS011;6988;52.614;13.500;2023-04-03T17:03:35;2.67;;;1.10;;
13834;SDS011;6988;52.614;13.500;2023-04-03T17:08:27;4.67;;;1.27;;
13834;SDS011;6988;52.614;13.500;2023-04-03T17:13:20;2.53;;;1.03;;
13834;SDS011;6988;52.614;13.500;2023-04-03T17:18:12;4.80;;;1.30;;
13834;SDS011;6988;52.614;13.500;2023-04-03T17:23:04;3.53;;;0.93;;
13834;SDS011;6988;52.614;13.500;2023-04-03T17:27:57;3.60;;;1.30;;
13834;SDS011;6988;52.614;13.500;2023-04-03T17:32:50;4.83;;;1.70;;
13834;SDS011;6988;52.614;13.500;2023-04-03T17:37:41;2.93;;;1.00;;
13834;SDS011;6988;52.614;13.500;2023-04-03T17:42:33;1.87;;;0.90;;
13834;SDS011;6988;52.614;13.500;2023-04-03T17:47:25;1.93;;;1.00;;
13834;SDS011;6988;52.614;13.500;2023-04-03T17:52:18;3.80;;;1.33;;
13834;SDS011;6988;52.614;13.500;2023-04-03T17:57:13;3.13;;;1.37;;
13834;SDS011;6988;52.614;13.500;2023-04-03T18:02:04;3.73;;;1.30;;
13834;SDS011;6988;52.614;13.500;2023-04-03T18:06:56;1.93;;;1.00;;
13834;SDS011;6988;52.614;13.500;2023-04-03T18:11:49;4.63;;;1.30;;
13834;SDS011;6988;52.614;13.500;2023-04-03T18:16:43;4.40;;;1.10;;
13834;SDS011;6988;52.614;13.500;2023-04-03T18:21:35;2.53;;;1.30;;
13834;SDS011;6988;52.614;13.500;2023-04-03T18:26:27;3.97;;;1.17;;
13834;SDS011;6988;52.614;13.500;2023-04-03T18:31:21;3.03;;;1.10;;
13834;SDS011;6988;52.614;13.500;2023-04-03T18:36:16;2.77;;;1.10;;
13834;SDS011;6988;52.614;13.500;2023-04-03T18:41:08;3.27;;;1.17;;
13834;SDS011;6988;52.614;13.500;2023-04-03T18:46:00;3.73;;;1.13;;
13834;SDS011;6988;52.614;13.500;2023-04-03T18:50:54;4.97;;;1.33;;
13834;SDS011;6988;52.614;13.500;2023-04-03T18:55:46;2.27;;;1.00;;
13834;SDS011;6988;52.614;13.500;2023-04-03T19:00:38;4.83;;;1.30;;
13834;SDS011;6988;52.614;13.500;2023-04-03T19:05:31;4.23;;;1.37;;
13834;SDS011;6988;52.614;13.500;2023-04-03T19:10:25;5.03;;;1.70;;
13834;SDS011;6988;52.614;13.500;2023-04-03T19:15:17;4.13;;;1.33;;
13834;SDS011;6988;52.614;13.500;2023-04-03T19:20:11;3.40;;;1.10;;
13834;SDS011;6988;52.614;13.500;2023-04-03T19:25:06;5.20;;;1.50;;
13834;SDS011;6988;52.614;13.500;2023-04-03T19:30:00;4.10;;;1.30;;
13834;SDS011;6988;52.614;13.500;2023-04-03T19:34:52;6.43;;;1.60;;
13834;SDS011;6988;52.614;13.500;2023-04-03T19:39:44;3.80;;;1.40;;
13834;SDS011;6988;52.614;13.500;2023-04-03T19:44:36;2.53;;;1.47;;
13834;SDS011;6988;52.614;13.500;2023-04-03T19:49:30;4.77;;;1.60;;
13834;SDS011;6988;52.614;13.500;2023-04-03T19:54:22;5.77;;;1.90;;
13834;SDS011;6988;52.614;13.500;2023-04-03T19:59:14;5.77;;;1.70;;
13834;SDS011;6988;52.614;13.500;2023-04-03T20:04:07;6.23;;;2.53;;
13834;SDS011;6988;52.614;13.500;2023-04-03T20:09:00;6.10;;;1.83;;
13834;SDS011;6988;52.614;13.500;2023-04-03T20:13:53;6.83;;;2.40;;
13834;SDS011;6988;52.614;13.500;2023-04-03T20:18:46;4.87;;;2.03;;
13834;SDS011;6988;52.614;13.500;2023-04-03T20:23:38;7.20;;;3.93;;
13834;SDS011;6988;52.614;13.500;2023-04-03T20:28:31;5.80;;;3.00;;
13834;SDS011;6988;52.614;13.500;2023-04-03T20:33:24;5.73;;;2.30;;
13834;SDS011;6988;52.614;13.500;2023-04-03T20:38:17;5.00;;;1.97;;
13834;SDS011;6988;52.614;13.500;2023-04-03T20:43:09;6.40;;;2.77;;
13834;SDS011;6988;52.614;13.500;2023-04-03T20:48:02;5.43;;;2.80;;
13834;SDS011;6988;52.614;13.500;2023-04-03T20:52:55;6.90;;;1.70;;
13834;SDS011;6988;52.614;13.500;2023-04-03T20:57:47;3.90;;;1.63;;
13834;SDS011;6988;52.614;13.500;2023-04-03T21:02:39;4.57;;;1.60;;
13834;SDS011;6988;52.614;13.500;2023-04-03T21:19:11;5.30;;;1.70;;
13834;SDS011;6988;52.614;13.500;2023-04-03T21:24:05;4.97;;;1.50;;
13834;SDS011;6988;52.614;13.500;2023-04-03T21:28:59;6.27;;;1.60;;
13834;SDS011;6988;52.614;13.500;2023-04-03T21:33:51;4.20;;;1.40;;
13834;SDS011;6988;52.614;13.500;2023-04-03T21:38:44;5.17;;;1.40;;
13834;SDS011;6988;52.614;13.500;2023-04-03T21:43:36;5.63;;;1.77;;
13834;SDS011;6988;52.614;13.500;2023-04-03T22:04:00;4.57;;;1.70;;
13834;SDS011;6988;52.614;13.500;2023-04-03T22:08:52;6.20;;;1.87;;
13834;SDS011;6988;52.614;13.500;2023-04-03T22:13:46;4.50;;;1.83;;
13834;SDS011;6988;52.614;13.500;2023-04-03T22:18:42;6.43;;;1.93;;
13834;SDS011;6988;52.614;13.500;2023-04-03T22:23:36;4.03;;;1.80;;
13834;SDS011;6988;52.614;13.500;2023-04-03T22:28:29;6.27;;;2.27;;
13834;SDS011;6988;52.614;13.500;2023-04-03T22:33:23;4.50;;;2.30;;
13834;SDS011;6988;52.614;13.500;2023-04-03T22:38:15;5.70;;;2.40;;
13834;SDS011;6988;52.614;13.500;2023-04-03T22:43:09;5.57;;;2.50;;
13834;SDS011;6988;52.614;13.500;2023-04-03T22:48:02;5.90;;;2.30;;
13834;SDS011;6988;52.614;13.500;2023-04-03T22:52:54;6.50;;;2.10;;
13834;SDS011;6988;52.614;13.500;2023-04-03T22:57:46;5.23;;;2.00;;
13834;SDS011;6988;52.614;13.500;2023-04-03T23:02:40;6.20;;;2.07;;
13834;SDS011;6988;52.614;13.500;2023-04-03T23:07:32;4.53;;;1.80;;
13834;SDS011;6988;52.614;13.500;2023-04-03T23:12:24;5.67;;;2.43;;
13834;SDS011;6988;52.614;13.500;2023-04-03T23:17:17;3.73;;;1.97;;
13834;SDS011;6988;52.614;13.500;2023-04-03T23:22:10;5.80;;;2.43;;
13834;SDS011;6988;52.614;13.500;2023-04-03T23:27:04;6.00;;;2.30;;
13834;SDS011;6988;52.614;13.500;2023-04-03T23:31:59;6.37;;;2.20;;
13834;SDS011;6988;52.614;13.500;2023-04-03T23:36:51;6.10;;;2.47;;
13834;SDS011;6988;52.614;13.500;2023-04-03T23:41:45;6.10;;;2.20;;
13834;SDS011;6988;52.614;13.500;2023-04-03T23:46:37;5.57;;;2.63;;
13834;SDS011;6988;52.614;13.500;2023-04-03T23:51:29;5.03;;;2.33;;
13834;SDS011;6988;52.614;13.500;2023-04-03T23:56:21;3.67;;;2.30;;
